Terminal Aerodrome Forecast
Issued by NWS Atlanta, GA

Home | Current Version | Previous Version | Text Only | Print | Product List | Glossary On
Versions: 1 2 3 4 5 6 7 8 9 10 11 12 13 14 15
000
FTUS42 KFFC 200531
TAFCSG
TAF
KCSG 200531Z 2006/2106 36007KT P6SM SKC
     FM200800 03007KT P6SM SKC
     FM201400 08011KT P6SM SKC
     FM202200 09007KT P6SM SKC=

USA.gov is the U.S. government's official web portal to all federal, state and local government web resources and services.